createdAt,value
2022-08-08T00:00:52.139Z,3.50
2022-08-08T00:02:59.409Z,2.90
2022-08-08T00:05:44.343Z,2.22
2022-08-08T00:08:24.576Z,2.75
2022-08-08T00:10:58.374Z,3.15
2022-08-08T00:14:16.497Z,2.75
2022-08-08T00:16:24.490Z,2.73
2022-08-08T00:18:58.284Z,3.50
2022-08-08T00:21:29.650Z,3.47
2022-08-08T00:24:13.931Z,2.67
2022-08-08T00:26:45.174Z,2.55
2022-08-08T00:29:45.069Z,2.92
2022-08-08T00:35:18.693Z,3.30
2022-08-08T00:38:01.570Z,3.15
2022-08-08T00:41:10.633Z,2.27
2022-08-08T00:43:55.885Z,2.55
2022-08-08T00:46:57.110Z,3.08
2022-08-08T00:49:42.291Z,2.80
2022-08-08T00:52:40.471Z,2.67
2022-08-08T00:55:52.537Z,2.58
2022-08-08T00:58:43.708Z,2.97
2022-08-08T01:01:37.630Z,2.83
2022-08-08T01:04:47.346Z,2.40
2022-08-08T01:07:55.544Z,3.40
2022-08-08T01:10:52.343Z,2.58
2022-08-08T01:13:53.068Z,2.97
2022-08-08T01:16:38.602Z,3.08
2022-08-08T01:20:01.229Z,3.15
2022-08-08T01:22:35.332Z,2.90
2022-08-08T01:25:26.422Z,3.35
2022-08-08T01:28:31.769Z,2.92
2022-08-08T01:32:13.013Z,3.00
2022-08-08T01:34:39.544Z,3.17
2022-08-08T01:37:51.204Z,3.13
2022-08-08T01:40:26.129Z,3.65
2022-08-08T01:43:03.377Z,3.63
2022-08-08T01:45:43.458Z,3.58
2022-08-08T01:48:31.422Z,3.40
2022-08-08T01:51:31.735Z,3.15
2022-08-08T01:56:04.567Z,3.20
2022-08-08T01:57:17.277Z,3.78
2022-08-08T02:00:02.328Z,3.55
2022-08-08T02:02:52.341Z,3.30
2022-08-08T02:05:33.853Z,3.53
2022-08-08T02:08:33.912Z,3.55
2022-08-08T02:11:23.683Z,3.60
2022-08-08T02:14:03.116Z,4.13
2022-08-08T02:16:48.191Z,3.97
2022-08-08T02:20:07.632Z,4.28
2022-08-08T02:22:33.194Z,4.30
2022-08-08T02:25:18.604Z,4.15
2022-08-08T02:27:55.865Z,3.58
2022-08-08T02:30:39.936Z,4.25
2022-08-08T02:33:41.609Z,4.25
2022-08-08T02:36:32.797Z,4.35
2022-08-08T02:39:40.545Z,3.90
2022-08-08T02:42:38.073Z,3.97
2022-08-08T02:45:30.292Z,3.45
2022-08-08T02:48:27.499Z,3.92
2022-08-08T02:51:29.681Z,3.78
2022-08-08T02:54:11.245Z,3.80
2022-08-08T02:57:12.187Z,3.50
2022-08-08T03:00:31.045Z,3.63
2022-08-08T03:03:09.892Z,3.90
2022-08-08T03:05:58.275Z,3.38
2022-08-08T03:08:43.331Z,3.42
2022-08-08T03:11:59.824Z,3.30
2022-08-08T03:15:56.685Z,3.53
2022-08-08T03:17:39.780Z,3.35
2022-08-08T03:20:13.615Z,3.58
2022-08-08T03:22:56.120Z,3.90
2022-08-08T03:25:36.130Z,3.80
2022-08-08T03:28:18.967Z,3.00
2022-08-08T03:31:22.121Z,3.65
2022-08-08T03:33:58.895Z,4.03
2022-08-08T03:36:33.321Z,3.90
2022-08-08T03:39:15.695Z,3.78
2022-08-08T03:44:47.879Z,3.58
2022-08-08T03:47:22.931Z,3.65
2022-08-08T03:50:01.905Z,3.60
2022-08-08T03:52:45.203Z,4.22
2022-08-08T03:55:57.691Z,3.20
2022-08-08T03:58:35.689Z,3.38
2022-08-08T04:01:23.668Z,3.67
2022-08-08T04:04:01.631Z,3.95
2022-08-08T04:06:57.753Z,4.30
2022-08-08T04:10:00.605Z,3.80
2022-08-08T04:12:30.727Z,4.10
2022-08-08T04:15:03.839Z,3.78
2022-08-08T04:17:58.508Z,4.00
2022-08-08T04:20:28.661Z,4.03
2022-08-08T04:23:03.657Z,3.95
2022-08-08T04:25:38.625Z,3.90
2022-08-08T04:28:36.954Z,4.07
2022-08-08T04:31:06.110Z,3.75
2022-08-08T04:33:41.978Z,4.13
2022-08-08T04:36:13.400Z,3.45
2022-08-08T04:38:43.807Z,3.95
2022-08-08T04:41:18.040Z,4.18
2022-08-08T04:43:57.243Z,4.20
2022-08-08T04:46:30.896Z,4.05
2022-08-08T04:49:01.639Z,4.03
2022-08-08T04:51:55.090Z,4.35
2022-08-08T04:54:39.833Z,4.03
2022-08-08T04:57:12.740Z,4.03
2022-08-08T04:59:43.572Z,3.85
2022-08-08T05:04:44.623Z,3.45
2022-08-08T05:07:15.129Z,3.35
2022-08-08T05:09:45.078Z,3.38
2022-08-08T05:12:20.877Z,3.67
2022-08-08T05:14:53.990Z,2.90
2022-08-08T05:17:23.221Z,3.83
2022-08-08T05:20:11.851Z,3.10
2022-08-08T05:22:43.215Z,3.17
2022-08-08T05:25:13.869Z,3.20
2022-08-08T05:27:44.404Z,2.80
2022-08-08T05:30:28.117Z,2.65
2022-08-08T05:32:59.646Z,3.13
2022-08-08T05:35:33.478Z,2.70
2022-08-08T05:38:30.698Z,2.72
2022-08-08T05:40:59.987Z,2.80
2022-08-08T05:43:39.734Z,3.08
2022-08-08T05:46:17.682Z,2.95
2022-08-08T05:48:52.054Z,3.03
2022-08-08T05:51:24.832Z,2.28
2022-08-08T05:54:42.656Z,2.50
2022-08-08T05:56:48.344Z,2.63
2022-08-08T06:00:00.290Z,3.00
2022-08-08T06:02:43.409Z,2.75
2022-08-08T06:05:33.757Z,2.80
2022-08-08T06:08:09.505Z,2.78
2022-08-08T06:10:42.815Z,2.63
2022-08-08T06:15:51.444Z,3.47
2022-08-08T06:18:36.756Z,2.58
2022-08-08T06:21:11.817Z,3.30
2022-08-08T06:24:05.285Z,2.40
2022-08-08T06:26:52.495Z,3.33
2022-08-08T06:29:56.904Z,3.25
2022-08-08T06:32:18.324Z,3.47
2022-08-08T06:35:35.528Z,3.83
2022-08-08T06:37:57.562Z,3.55
2022-08-08T06:40:33.301Z,3.25
2022-08-08T06:43:10.799Z,3.00
2022-08-08T06:45:48.507Z,3.30
2022-08-08T06:48:20.037Z,3.58
2022-08-08T06:50:53.885Z,4.15
2022-08-08T06:53:24.813Z,3.38
2022-08-08T06:56:10.438Z,3.97
2022-08-08T06:58:40.435Z,3.35
2022-08-08T07:02:16.784Z,3.80
2022-08-08T07:04:37.034Z,3.38
2022-08-08T07:07:10.690Z,3.88
2022-08-08T07:09:56.394Z,3.63
2022-08-08T07:12:32.889Z,3.67
2022-08-08T07:15:05.406Z,3.28
2022-08-08T07:18:00.704Z,3.90
2022-08-08T07:20:29.203Z,5.38
2022-08-08T07:23:05.457Z,5.23
2022-08-08T07:25:40.433Z,3.70
2022-08-08T07:28:31.334Z,3.90
2022-08-08T07:31:03.540Z,3.70
2022-08-08T07:33:37.639Z,3.95
2022-08-08T07:36:09.906Z,3.58
2022-08-08T07:38:43.572Z,3.13
2022-08-08T07:41:24.795Z,3.38
2022-08-08T07:43:58.930Z,3.08
2022-08-08T07:46:30.979Z,2.95
2022-08-08T07:49:10.585Z,3.35
2022-08-08T07:51:45.070Z,3.35
2022-08-08T07:54:33.009Z,3.03
2022-08-08T07:57:12.536Z,3.60
2022-08-08T07:59:52.599Z,3.10
2022-08-08T08:02:39.514Z,2.80
2022-08-08T08:05:19.713Z,2.83
2022-08-08T08:07:54.558Z,3.00
2022-08-08T08:10:33.402Z,2.97
2022-08-08T08:13:25.563Z,2.55
2022-08-08T08:16:19.511Z,2.80
2022-08-08T08:18:56.682Z,2.50
2022-08-08T08:21:44.853Z,2.38
2022-08-08T08:24:32.424Z,2.72
2022-08-08T08:27:08.435Z,3.00
2022-08-08T08:29:42.375Z,3.05
2022-08-08T08:32:24.066Z,2.70
2022-08-08T08:35:04.262Z,2.88
2022-08-08T08:37:53.069Z,2.97
2022-08-08T08:40:24.423Z,3.17
2022-08-08T08:42:57.847Z,2.80
2022-08-08T08:45:30.910Z,2.63
2022-08-08T08:48:07.857Z,2.75
2022-08-08T08:50:40.982Z,2.55
2022-08-08T08:53:53.916Z,2.92
2022-08-08T08:56:12.547Z,1.63
2022-08-08T08:58:52.970Z,1.80
2022-08-08T09:01:30.573Z,1.77
2022-08-08T09:04:05.591Z,1.90
2022-08-08T09:06:50.073Z,1.88
2022-08-08T09:09:35.236Z,2.50
2022-08-08T09:12:20.498Z,1.95
2022-08-08T09:14:53.624Z,2.40
2022-08-08T09:17:40.829Z,2.45
2022-08-08T09:21:59.386Z,1.90
2022-08-08T09:23:03.536Z,1.65
2022-08-08T09:25:54.857Z,1.90
2022-08-08T09:28:37.893Z,1.63
2022-08-08T09:31:16.457Z,1.80
2022-08-08T09:34:14.773Z,1.60
2022-08-08T09:36:51.838Z,1.60
2022-08-08T09:39:41.306Z,1.48
2022-08-08T09:42:20.532Z,1.67
2022-08-08T09:44:57.152Z,1.55
2022-08-08T09:48:04.054Z,1.60
2022-08-08T09:50:28.222Z,1.30
2022-08-08T09:56:04.705Z,2.72
2022-08-08T09:58:27.985Z,1.40
2022-08-08T10:01:14.495Z,1.40
2022-08-08T10:04:04.910Z,1.33
2022-08-08T10:06:35.827Z,1.30
2022-08-08T10:09:08.615Z,1.40
2022-08-08T10:12:27.102Z,1.30
2022-08-08T10:14:38.664Z,2.03
2022-08-08T10:17:57.478Z,1.33
2022-08-08T10:20:01.474Z,1.05
2022-08-08T10:22:33.938Z,1.20
2022-08-08T10:25:16.623Z,1.05
2022-08-08T10:27:48.543Z,1.25
2022-08-08T10:31:00.397Z,1.30
2022-08-08T10:33:12.262Z,1.33
2022-08-08T10:36:06.674Z,1.40
2022-08-08T10:38:35.174Z,1.67
2022-08-08T10:41:20.321Z,1.65
2022-08-08T10:43:51.934Z,1.15
2022-08-08T10:46:30.116Z,1.30
2022-08-08T10:49:00.172Z,1.27
2022-08-08T10:51:40.847Z,1.20
2022-08-08T10:54:25.362Z,1.42
2022-08-08T10:57:00.142Z,2.25
2022-08-08T10:59:39.296Z,1.42
2022-08-08T11:02:10.312Z,1.10
2022-08-08T11:04:53.001Z,1.20
2022-08-08T11:08:30.240Z,1.27
2022-08-08T11:10:19.742Z,1.40
2022-08-08T11:13:27.186Z,1.30
2022-08-08T11:15:58.792Z,1.15
2022-08-08T11:18:31.527Z,1.50
2022-08-08T11:21:09.110Z,1.38
2022-08-08T11:23:43.285Z,1.67
2022-08-08T11:26:19.395Z,1.30
2022-08-08T11:28:51.860Z,1.52
2022-08-08T11:31:21.954Z,1.35
2022-08-08T11:34:02.930Z,1.05
2022-08-08T11:36:36.472Z,1.23
2022-08-08T11:39:12.769Z,1.10
2022-08-08T11:41:47.174Z,0.88
2022-08-08T11:44:29.012Z,1.42
2022-08-08T11:46:58.901Z,0.93
2022-08-08T11:49:28.818Z,1.13
2022-08-08T11:52:00.496Z,1.27
2022-08-08T11:54:44.567Z,0.80
2022-08-08T11:57:16.961Z,0.85
2022-08-08T12:00:01.346Z,0.85
2022-08-08T12:02:51.408Z,0.93
2022-08-08T12:05:22.800Z,0.82
2022-08-08T12:07:53.169Z,0.70
2022-08-08T12:10:25.203Z,0.65
2022-08-08T12:13:03.039Z,0.75
2022-08-08T12:15:42.629Z,0.80
2022-08-08T12:18:21.278Z,0.80
2022-08-08T12:20:54.980Z,0.50
2022-08-08T12:23:42.910Z,0.70
2022-08-08T12:26:28.135Z,0.70
2022-08-08T12:29:19.850Z,0.60
2022-08-08T12:32:02.995Z,0.65
2022-08-08T12:34:37.029Z,0.60
2022-08-08T12:37:08.116Z,0.70
2022-08-08T12:40:00.556Z,1.35
2022-08-08T12:42:32.915Z,0.55
2022-08-08T12:45:20.016Z,0.40
2022-08-08T12:48:09.681Z,0.60
2022-08-08T12:50:40.908Z,1.17
2022-08-08T12:53:20.171Z,0.60
2022-08-08T12:56:08.596Z,0.70
2022-08-08T12:58:48.576Z,0.50
2022-08-08T13:01:24.349Z,0.50
2022-08-08T13:03:53.975Z,0.82
2022-08-08T13:06:26.414Z,0.70
2022-08-08T13:08:58.100Z,0.52
2022-08-08T13:12:24.490Z,0.80
2022-08-08T13:14:19.341Z,0.60
2022-08-08T13:16:50.572Z,0.70
2022-08-08T13:19:25.500Z,0.70
2022-08-08T13:22:10.460Z,1.00
2022-08-08T13:24:48.466Z,0.70
2022-08-08T13:27:19.330Z,0.77
2022-08-08T13:29:52.871Z,0.90
2022-08-08T13:32:25.287Z,0.90
2022-08-08T13:34:55.887Z,0.77
2022-08-08T13:37:51.655Z,0.60
2022-08-08T13:40:27.382Z,1.02
2022-08-08T13:42:57.892Z,1.90
2022-08-08T13:45:28.949Z,1.00
2022-08-08T13:48:00.635Z,1.58
2022-08-08T13:50:37.488Z,1.55
2022-08-08T13:53:22.614Z,2.00
2022-08-08T13:56:01.519Z,2.33
2022-08-08T13:58:31.741Z,2.03
2022-08-08T14:01:15.006Z,2.80
2022-08-08T14:03:54.973Z,2.08
2022-08-08T14:06:34.353Z,2.60
2022-08-08T14:09:24.443Z,1.95
2022-08-08T14:11:55.349Z,1.92
2022-08-08T14:14:26.184Z,1.88
2022-08-08T14:17:00.566Z,2.13
2022-08-08T14:19:57.008Z,1.98
2022-08-08T14:22:25.557Z,2.00
2022-08-08T14:24:55.908Z,1.80
2022-08-08T14:27:33.367Z,1.73
2022-08-08T14:30:04.678Z,1.52
2022-08-08T14:32:53.056Z,1.88
2022-08-08T14:35:24.228Z,1.80
2022-08-08T14:38:33.523Z,2.13
2022-08-08T14:40:59.613Z,1.77
2022-08-08T14:44:01.880Z,1.63
2022-08-08T14:46:30.833Z,1.60
2022-08-08T14:49:09.461Z,1.80
2022-08-08T14:51:53.583Z,1.45
2022-08-08T14:54:29.535Z,1.55
2022-08-08T14:56:59.179Z,1.90
2022-08-08T14:59:44.198Z,1.20
2022-08-08T15:02:25.442Z,2.38
2022-08-08T15:05:08.159Z,2.10
2022-08-08T15:07:41.193Z,3.40
2022-08-08T15:10:13.124Z,5.25
2022-08-08T15:12:42.676Z,5.07
2022-08-08T15:15:18.920Z,3.50
2022-08-08T15:18:05.703Z,4.13
2022-08-08T15:23:08.446Z,5.82
2022-08-08T15:25:38.500Z,5.70
2022-08-08T15:28:33.791Z,8.70
2022-08-08T15:31:01.506Z,6.60
2022-08-08T15:33:38.444Z,9.25
2022-08-08T15:36:19.823Z,4.57
2022-08-08T15:38:59.346Z,4.80
2022-08-08T15:41:37.078Z,5.32
2022-08-08T15:44:13.944Z,3.17
2022-08-08T15:46:45.462Z,2.92
2022-08-08T15:49:21.131Z,2.55
2022-08-08T15:51:54.482Z,1.70
2022-08-08T15:54:38.515Z,2.00
2022-08-08T15:57:09.763Z,1.85
2022-08-08T16:00:14.189Z,2.30
2022-08-08T16:02:30.382Z,1.70
2022-08-08T16:05:00.043Z,1.50
2022-08-08T16:07:51.019Z,2.10
2022-08-08T16:13:10.887Z,1.80
2022-08-08T16:13:33.472Z,1.65
2022-08-08T16:16:09.262Z,1.63
2022-08-08T16:18:56.620Z,2.15
2022-08-08T16:21:29.776Z,1.55
2022-08-08T16:24:00.176Z,1.60
2022-08-08T16:26:34.662Z,1.80
2022-08-08T16:29:08.182Z,2.17
2022-08-08T16:31:41.006Z,1.60
2022-08-08T16:34:10.983Z,1.45
2022-08-08T16:36:40.799Z,1.75
2022-08-08T16:39:27.668Z,1.60
2022-08-08T16:42:01.805Z,1.55
2022-08-08T16:44:34.002Z,1.90
2022-08-08T16:47:21.848Z,2.10
2022-08-08T16:50:13.674Z,1.40
2022-08-08T16:55:22.472Z,1.63
2022-08-08T16:55:54.093Z,1.65
2022-08-08T16:58:26.710Z,1.58
2022-08-08T17:00:59.014Z,1.40
2022-08-08T17:03:59.506Z,1.50
2022-08-08T17:06:39.574Z,2.42
2022-08-08T17:09:15.579Z,1.40
2022-08-08T17:11:48.631Z,1.83
2022-08-08T17:14:32.997Z,1.40
2022-08-08T17:17:04.481Z,1.30
2022-08-08T17:19:40.894Z,1.50
2022-08-08T17:22:14.057Z,1.02
2022-08-08T17:24:43.599Z,1.40
2022-08-08T17:27:29.061Z,1.30
2022-08-08T17:30:23.374Z,1.10
2022-08-08T17:34:37.694Z,1.08
2022-08-08T17:35:53.717Z,1.10
2022-08-08T17:38:30.786Z,1.23
2022-08-08T17:41:00.568Z,1.20
2022-08-08T17:43:31.896Z,1.47
2022-08-08T17:46:38.872Z,1.40
2022-08-08T17:49:08.895Z,1.67
2022-08-08T17:51:39.829Z,1.43
2022-08-08T17:54:22.338Z,1.30
2022-08-08T17:56:58.837Z,1.20
2022-08-08T17:59:30.534Z,1.30
2022-08-08T18:02:11.356Z,1.20
2022-08-08T18:04:50.596Z,1.20
2022-08-08T18:08:03.541Z,1.50
2022-08-08T18:10:10.269Z,1.02
2022-08-08T18:12:40.610Z,1.30
2022-08-08T18:15:13.277Z,1.10
2022-08-08T18:18:04.948Z,1.30
2022-08-08T18:20:37.280Z,0.90
2022-08-08T18:23:23.704Z,1.10
2022-08-08T18:25:53.463Z,0.90
2022-08-08T18:28:23.593Z,1.35
2022-08-08T18:30:54.845Z,1.10
2022-08-08T18:34:10.541Z,1.13
2022-08-08T18:36:18.926Z,1.30
2022-08-08T18:38:52.703Z,1.10
2022-08-08T18:41:51.479Z,1.35
2022-08-08T18:44:12.811Z,1.63
2022-08-08T18:46:54.943Z,0.98
2022-08-08T18:49:40.824Z,1.58
2022-08-08T18:52:24.496Z,1.88
2022-08-08T18:55:00.493Z,1.10
2022-08-08T18:57:57.623Z,1.25
2022-08-08T19:00:29.517Z,1.38
2022-08-08T19:03:06.316Z,1.35
2022-08-08T19:05:45.145Z,1.30
2022-08-08T19:08:25.226Z,1.60
2022-08-08T19:11:02.155Z,1.30
2022-08-08T19:13:53.909Z,1.63
2022-08-08T19:16:23.621Z,1.08
2022-08-08T19:19:00.376Z,1.10
2022-08-08T19:21:49.123Z,1.05
2022-08-08T19:24:42.499Z,1.27
2022-08-08T19:27:09.096Z,1.58
2022-08-08T19:29:45.638Z,1.40
2022-08-08T19:32:21.864Z,1.13
2022-08-08T19:34:53.166Z,1.60
2022-08-08T19:37:43.970Z,2.05
2022-08-08T19:40:16.622Z,1.67
2022-08-08T19:42:47.219Z,2.20
2022-08-08T19:45:58.236Z,1.52
2022-08-08T19:48:30.442Z,1.80
2022-08-08T19:51:00.905Z,1.67
2022-08-08T19:53:52.757Z,1.70
2022-08-08T19:56:25.879Z,1.95
2022-08-08T19:59:10.294Z,1.98
2022-08-08T20:01:59.777Z,2.58
2022-08-08T20:04:33.875Z,2.42
2022-08-08T20:07:03.590Z,2.63
2022-08-08T20:09:55.787Z,2.15
2022-08-08T20:12:32.535Z,2.38
2022-08-08T20:15:15.110Z,2.50
2022-08-08T20:17:47.981Z,2.85
2022-08-08T20:20:22.265Z,2.28
2022-08-08T20:22:56.320Z,2.50
2022-08-08T20:25:30.121Z,2.53
2022-08-08T20:28:06.907Z,2.53
2022-08-08T20:30:56.223Z,2.65
2022-08-08T20:34:29.309Z,2.60
2022-08-08T20:36:22.340Z,2.88
2022-08-08T20:38:51.975Z,4.70
2022-08-08T20:41:24.749Z,4.47
2022-08-08T20:44:00.594Z,4.15
2022-08-08T20:49:01.421Z,3.70
2022-08-08T20:51:33.005Z,3.60
2022-08-08T20:54:14.203Z,3.80
2022-08-08T20:57:05.784Z,4.03
2022-08-08T20:59:41.714Z,3.83
2022-08-08T21:02:12.728Z,4.43
2022-08-08T21:04:47.730Z,3.78
2022-08-08T21:07:47.465Z,4.72
2022-08-08T21:10:12.743Z,4.30
2022-08-08T21:12:46.232Z,4.80
2022-08-08T21:16:17.547Z,4.35
2022-08-08T21:18:13.963Z,4.15
2022-08-08T21:20:49.128Z,3.67
2022-08-08T21:23:25.103Z,3.78
2022-08-08T21:26:13.488Z,4.05
2022-08-08T21:29:00.922Z,4.15
2022-08-08T21:31:57.846Z,4.35
2022-08-08T21:34:22.225Z,4.18
2022-08-08T21:36:56.206Z,4.85
2022-08-08T21:39:54.582Z,4.75
2022-08-08T21:42:24.930Z,4.28
2022-08-08T21:44:58.633Z,5.20
2022-08-08T21:48:07.162Z,4.10
2022-08-08T21:50:20.387Z,4.90
2022-08-08T21:54:32.398Z,4.20
2022-08-08T21:56:19.933Z,4.55
2022-08-08T21:58:37.484Z,5.32
2022-08-08T22:01:25.345Z,5.45
2022-08-08T22:03:59.319Z,4.85
2022-08-08T22:06:32.047Z,4.20
2022-08-08T22:09:03.082Z,5.03
2022-08-08T22:11:51.161Z,4.20
2022-08-08T22:14:28.909Z,4.60
2022-08-08T22:17:01.133Z,4.80
2022-08-08T22:20:10.914Z,4.18
2022-08-08T22:22:28.659Z,4.55
2022-08-08T22:24:58.507Z,4.18
2022-08-08T22:27:56.015Z,5.25
2022-08-08T22:30:29.841Z,5.28
2022-08-08T22:33:09.023Z,4.78
2022-08-08T22:36:04.006Z,4.82
2022-08-08T22:38:48.968Z,4.10
2022-08-08T22:41:21.064Z,4.95
2022-08-08T22:44:05.802Z,4.30
2022-08-08T22:46:38.673Z,3.85
2022-08-08T22:51:42.581Z,3.65
2022-08-08T22:54:31.592Z,4.80
2022-08-08T22:57:11.568Z,4.10
2022-08-08T22:59:58.739Z,4.28
2022-08-08T23:02:32.063Z,3.90
2022-08-08T23:05:04.921Z,4.13
2022-08-08T23:07:51.370Z,4.40
2022-08-08T23:10:26.722Z,3.92
2022-08-08T23:12:57.027Z,3.88
2022-08-08T23:16:39.188Z,4.10
2022-08-08T23:18:17.749Z,4.10
2022-08-08T23:20:51.459Z,3.92
2022-08-08T23:23:25.762Z,4.47
2022-08-08T23:25:56.238Z,4.45
2022-08-08T23:28:26.027Z,4.15
2022-08-08T23:30:55.710Z,4.55
2022-08-08T23:34:17.440Z,6.03
2022-08-08T23:36:15.896Z,4.30
2022-08-08T23:39:00.309Z,3.85
2022-08-08T23:41:31.097Z,4.53
2022-08-08T23:44:15.399Z,4.00
2022-08-08T23:49:07.119Z,3.80
2022-08-08T23:49:34.948Z,3.47
2022-08-08T23:52:08.761Z,4.18
2022-08-08T23:54:53.612Z,3.25
2022-08-08T23:57:39.249Z,3.20
